Time;durP1;ratioP1;P1;durP2;ratioP2;P2;SDS_P1;SDS_P2;PMS_P1;PMS_P2;Temp;Humidity;BMP_temperature;BMP_pressure;BME280_temperature;BME280_humidity;BME280_pressure;Samples;Min_cycle;Max_cycle;Signal;HPM_P1;HPM_P2
2021/07/22 00:02:08;;;;;;;9.30;6.60;;;18.20;99.90;;;;;;4979456;28;20460;-61
2021/07/22 00:04:33;;;;;;;7.65;6.85;;;18.30;99.90;;;;;;4991958;28;20271;-61
2021/07/22 00:06:59;;;;;;;7.40;6.60;;;18.30;99.90;;;;;;4971060;28;20211;-61
2021/07/22 00:09:24;;;;;;;7.80;7.10;;;18.20;99.90;;;;;;4979939;28;20282;-61
2021/07/22 00:11:51;;;;;;;8.30;7.50;;;18.20;99.90;;;;;;4975984;28;20187;-61
2021/07/22 00:14:16;;;;;;;10.13;6.80;;;18.20;99.90;;;;;;4976163;28;20220;-61
2021/07/22 00:16:42;;;;;;;8.30;7.00;;;18.20;99.90;;;;;;4976181;28;20315;-62
2021/07/22 00:19:07;;;;;;;7.50;6.70;;;18.20;99.90;;;;;;4981444;28;20857;-61
2021/07/22 00:21:33;;;;;;;7.17;6.47;;;18.10;99.90;;;;;;4979652;28;20203;-61
2021/07/22 00:23:59;;;;;;;9.43;7.10;;;18.10;99.90;;;;;;4977703;28;20695;-61
2021/07/22 00:26:25;;;;;;;7.75;6.25;;;18.10;99.90;;;;;;4968178;28;20271;-61
2021/07/22 00:28:51;;;;;;;7.93;6.87;;;18.00;99.90;;;;;;4972024;28;20331;-61
2021/07/22 00:31:16;;;;;;;7.30;6.70;;;18.00;99.90;;;;;;4976148;28;20699;-61
2021/07/22 00:33:42;;;;;;;7.33;6.43;;;18.00;99.90;;;;;;4978616;28;20620;-61
2021/07/22 00:36:09;;;;;;;8.80;7.13;;;18.00;99.90;;;;;;4975161;28;20187;-61
2021/07/22 00:38:36;;;;;;;10.38;7.25;;;18.00;99.90;;;;;;4978559;28;20179;-61
2021/07/22 00:41:10;;;;;;;9.32;6.82;;;17.90;99.90;;;;;;4976674;28;20617;-61
2021/07/22 00:43:36;;;;;;;8.63;7.65;;;17.90;99.90;;;;;;4974357;28;20191;-61
2021/07/22 00:46:01;;;;;;;7.83;7.13;;;17.80;99.90;;;;;;4974556;28;20541;-62
2021/07/22 00:48:27;;;;;;;8.07;7.07;;;17.80;99.90;;;;;;4971322;28;20187;-61
2021/07/22 00:50:52;;;;;;;8.00;7.17;;;17.70;99.90;;;;;;4976369;28;20287;-62
2021/07/22 00:53:18;;;;;;;8.17;7.07;;;17.60;99.90;;;;;;4982413;28;20215;-61
2021/07/22 00:55:44;;;;;;;7.97;6.83;;;17.60;99.90;;;;;;4977157;28;20278;-61
2021/07/22 00:58:10;;;;;;;7.07;6.03;;;17.50;99.90;;;;;;4986143;28;20668;-61
2021/07/22 01:00:35;;;;;;;10.73;7.27;;;17.50;99.90;;;;;;4979509;28;20207;-61
2021/07/22 01:03:01;;;;;;;7.97;7.17;;;17.50;99.90;;;;;;4980128;28;20544;-61
2021/07/22 01:05:27;;;;;;;7.03;6.33;;;17.40;99.90;;;;;;4975392;28;20191;-62
2021/07/22 01:07:52;;;;;;;8.80;7.40;;;17.40;99.90;;;;;;4974317;28;20246;-61
2021/07/22 01:10:18;;;;;;;7.50;6.80;;;17.40;99.90;;;;;;4975841;28;20207;-61
2021/07/22 01:12:43;;;;;;;8.00;7.20;;;17.50;99.90;;;;;;4975720;28;20683;-61
2021/07/22 01:15:10;;;;;;;8.47;7.00;;;17.20;99.90;;;;;;4974611;28;20219;-61
2021/07/22 01:17:47;;;;;;;10.05;7.25;;;17.30;99.90;;;;;;4970514;28;20274;-61
2021/07/22 01:20:16;;;;;;;7.50;6.80;;;17.30;99.90;;;;;;4973095;28;20234;-61
2021/07/22 01:22:42;;;;;;;7.75;6.75;;;17.40;99.90;;;;;;4963443;28;20282;-61
2021/07/22 01:25:08;;;;;;;7.40;6.70;;;17.30;99.90;;;;;;4979821;28;20270;-61
2021/07/22 01:27:34;;;;;;;8.10;7.30;;;17.20;99.90;;;;;;4975664;28;20558;-62
2021/07/22 01:29:59;;;;;;;7.37;6.63;;;17.30;99.90;;;;;;4972790;28;20290;-61
2021/07/22 01:32:25;;;;;;;7.93;6.30;;;17.30;99.90;;;;;;4975323;28;20187;-61
2021/07/22 01:34:51;;;;;;;8.50;7.30;;;17.20;99.90;;;;;;4989199;28;20215;-61
2021/07/22 01:37:16;;;;;;;7.53;6.67;;;17.20;99.90;;;;;;4979448;28;20183;-61
2021/07/22 01:39:42;;;;;;;8.10;7.30;;;17.30;99.90;;;;;;4976245;28;20219;-61
2021/07/22 01:42:09;;;;;;;7.43;6.77;;;17.20;99.90;;;;;;4966680;28;20211;-61
2021/07/22 01:44:34;;;;;;;7.75;7.05;;;17.20;99.90;;;;;;4990546;28;20610;-62
2021/07/22 01:47:03;;;;;;;7.97;6.80;;;17.00;99.90;;;;;;4979466;28;20215;-61
2021/07/22 01:49:28;;;;;;;8.48;7.57;;;17.00;99.90;;;;;;4977113;28;20187;-62
2021/07/22 01:51:54;;;;;;;7.33;6.60;;;17.00;99.90;;;;;;4973590;28;20242;-61
2021/07/22 01:54:19;;;;;;;11.10;7.23;;;16.80;99.90;;;;;;4973641;28;20880;-61
2021/07/22 01:56:45;;;;;;;10.30;7.50;;;16.90;99.90;;;;;;4974047;28;20193;-61
2021/07/22 01:59:11;;;;;;;7.53;6.43;;;16.80;99.90;;;;;;4978514;28;20207;-61
2021/07/22 02:01:36;;;;;;;8.47;7.23;;;16.80;99.90;;;;;;4975305;28;20209;-61
2021/07/22 02:04:02;;;;;;;11.03;7.00;;;16.90;99.90;;;;;;4974216;28;20184;-61
2021/07/22 02:06:27;;;;;;;8.47;7.30;;;16.80;99.90;;;;;;4978449;28;20187;-61
2021/07/22 02:08:53;;;;;;;7.60;6.90;;;16.80;99.90;;;;;;4975317;28;20194;-61
2021/07/22 02:11:19;;;;;;;7.80;7.00;;;16.70;99.90;;;;;;4973195;28;20207;-61
2021/07/22 02:13:44;;;;;;;7.37;6.67;;;16.80;99.90;;;;;;4974651;28;20207;-61
2021/07/22 02:16:10;;;;;;;8.57;6.57;;;16.70;99.90;;;;;;4979180;28;20207;-61
2021/07/22 02:18:36;;;;;;;8.18;7.10;;;16.80;99.90;;;;;;4977390;28;20184;-61
2021/07/22 02:21:06;;;;;;;8.20;7.27;;;16.70;99.90;;;;;;4972206;28;20214;-61
2021/07/22 02:23:32;;;;;;;8.15;7.35;;;16.60;99.90;;;;;;4966518;28;20187;-61
2021/07/22 02:25:58;;;;;;;7.82;7.13;;;16.40;99.90;;;;;;4977797;28;20195;-61
2021/07/22 02:28:23;;;;;;;7.93;7.13;;;16.80;99.90;;;;;;4974920;28;20712;-61
2021/07/22 02:30:49;;;;;;;7.47;6.77;;;16.40;99.90;;;;;;4988189;28;20218;-61
2021/07/22 02:33:14;;;;;;;7.17;6.47;;;16.50;99.90;;;;;;4976290;28;20657;-61
2021/07/22 02:35:40;;;;;;;7.33;6.63;;;16.60;99.90;;;;;;4976776;28;20196;-61
2021/07/22 02:38:06;;;;;;;7.90;7.20;;;16.60;99.90;;;;;;4974743;28;20270;-61
2021/07/22 02:40:31;;;;;;;9.37;6.93;;;16.70;99.90;;;;;;4972729;28;20247;-61
2021/07/22 02:42:57;;;;;;;6.87;6.27;;;16.60;99.90;;;;;;4970971;28;20657;-61
2021/07/22 02:45:22;;;;;;;9.13;7.40;;;16.40;99.90;;;;;;4990759;28;20528;-61
2021/07/22 02:47:48;;;;;;;9.37;6.93;;;16.40;99.90;;;;;;4978414;28;20282;-61
2021/07/22 02:50:13;;;;;;;12.80;7.17;;;16.50;99.90;;;;;;4975976;28;20691;-60
2021/07/22 02:52:39;;;;;;;7.27;6.60;;;16.50;99.90;;;;;;4973636;28;20209;-60
2021/07/22 02:55:05;;;;;;;8.20;6.70;;;16.60;99.90;;;;;;4979647;28;20238;-61
2021/07/22 02:57:30;;;;;;;9.27;6.80;;;16.50;99.90;;;;;;4974879;28;20191;-61
2021/07/22 02:59:59;;;;;;;12.37;8.23;;;16.20;99.90;;;;;;4974418;28;20463;-61
2021/07/22 03:02:24;;;;;;;8.73;6.78;;;16.30;99.90;;;;;;4970236;28;20534;-61
2021/07/22 03:04:50;;;;;;;8.00;7.07;;;16.10;99.90;;;;;;4981882;28;20687;-61
2021/07/22 03:07:16;;;;;;;7.70;7.00;;;16.20;99.90;;;;;;4976546;28;20263;-61
2021/07/22 03:09:41;;;;;;;7.87;7.07;;;16.20;99.90;;;;;;4976979;28;20207;-61
2021/07/22 03:12:10;;;;;;;7.63;6.93;;;16.10;99.90;;;;;;4985030;28;20691;-61
2021/07/22 03:14:35;;;;;;;9.88;7.32;;;15.90;99.90;;;;;;4979996;28;20211;-61
2021/07/22 03:17:01;;;;;;;7.73;7.03;;;16.10;99.90;;;;;;4973557;28;20410;-61
2021/07/22 03:19:27;;;;;;;7.80;7.10;;;16.10;99.90;;;;;;4970408;28;20187;-61
2021/07/22 03:21:52;;;;;;;7.03;6.20;;;16.00;99.90;;;;;;4971199;28;20171;-61
2021/07/22 03:24:18;;;;;;;7.83;7.17;;;16.00;99.90;;;;;;4983893;28;20688;-61
2021/07/22 03:26:44;;;;;;;10.70;7.20;;;16.00;99.90;;;;;;4982632;28;20595;-61
2021/07/22 03:29:09;;;;;;;9.60;8.00;;;16.00;99.90;;;;;;4979690;28;20191;-62
2021/07/22 03:31:35;;;;;;;8.23;6.40;;;15.90;99.90;;;;;;4977829;28;20212;-62
2021/07/22 03:34:00;;;;;;;8.00;6.97;;;15.90;99.90;;;;;;4980052;28;20207;-61
2021/07/22 03:36:26;;;;;;;9.87;8.90;;;16.10;99.90;;;;;;4979984;28;20190;-62
2021/07/22 03:38:51;;;;;;;9.23;6.37;;;16.00;99.90;;;;;;4975860;28;20183;-62
2021/07/22 03:41:18;;;;;;;9.20;6.90;;;16.00;99.90;;;;;;4979757;28;20732;-62
2021/07/22 03:43:44;;;;;;;8.75;7.85;;;15.90;99.90;;;;;;4983804;28;20657;-61
2021/07/22 03:46:09;;;;;;;7.93;7.20;;;16.10;99.90;;;;;;4976432;28;20184;-61
2021/07/22 03:48:35;;;;;;;8.40;7.53;;;15.80;99.90;;;;;;4991668;28;20187;-62
2021/07/22 03:51:01;;;;;;;8.13;7.25;;;15.90;99.90;;;;;;4981343;28;20572;-62
2021/07/22 03:53:26;;;;;;;7.37;6.70;;;15.60;99.90;;;;;;4973489;28;20211;-62
2021/07/22 03:55:52;;;;;;;9.23;6.60;;;15.80;99.90;;;;;;4972283;28;20184;-62
2021/07/22 03:58:18;;;;;;;8.90;8.10;;;16.00;99.90;;;;;;4973603;28;20645;-61
2021/07/22 04:00:43;;;;;;;8.57;7.37;;;15.80;99.90;;;;;;4979403;28;20218;-61
2021/07/22 04:03:09;;;;;;;7.60;6.90;;;15.80;99.90;;;;;;4990733;28;20198;-61
2021/07/22 04:05:35;;;;;;;8.03;6.57;;;15.60;99.90;;;;;;4980161;28;20183;-63
2021/07/22 04:08:00;;;;;;;8.53;7.73;;;15.90;99.90;;;;;;4974269;28;20183;-63
2021/07/22 04:10:28;;;;;;;7.00;6.30;;;15.80;99.90;;;;;;4973445;28;20234;-63
2021/07/22 04:12:55;;;;;;;8.63;7.40;;;15.90;99.90;;;;;;4988889;28;20551;-63
2021/07/22 04:15:22;;;;;;;8.25;7.45;;;15.60;99.90;;;;;;4976625;28;20231;-63
2021/07/22 04:17:52;;;;;;;8.95;6.50;;;15.80;99.90;;;;;;4984716;28;20187;-58
2021/07/22 04:20:19;;;;;;;8.40;7.60;;;15.70;99.90;;;;;;4971723;28;20235;-59
2021/07/22 04:22:44;;;;;;;8.43;7.30;;;16.10;99.90;;;;;;4974196;28;20183;-61
2021/07/22 04:25:10;;;;;;;10.87;7.10;;;15.80;99.90;;;;;;4970053;28;20706;-60
2021/07/22 04:27:36;;;;;;;9.70;7.93;;;15.90;99.90;;;;;;4967285;28;21028;-62
2021/07/22 04:30:02;;;;;;;9.63;7.37;;;16.00;99.90;;;;;;4967763;28;20253;-61
2021/07/22 04:32:27;;;;;;;11.00;7.60;;;16.00;99.90;;;;;;4967980;28;20666;-60
2021/07/22 04:34:53;;;;;;;8.43;7.40;;;15.90;99.90;;;;;;4967651;28;20522;-56
2021/07/22 04:37:19;;;;;;;10.90;7.33;;;16.00;99.90;;;;;;4969031;28;20195;-56
2021/07/22 04:39:44;;;;;;;8.37;7.57;;;16.30;99.90;;;;;;4967759;28;20454;-57
2021/07/22 04:42:10;;;;;;;9.60;7.50;;;16.10;99.90;;;;;;4969363;28;20187;-56
2021/07/22 04:44:36;;;;;;;10.13;7.90;;;16.20;99.90;;;;;;4967848;28;20617;-58
2021/07/22 04:47:05;;;;;;;7.50;6.63;;;16.20;99.90;;;;;;4968285;28;20183;-57
2021/07/22 04:49:30;;;;;;;9.32;7.25;;;16.40;99.90;;;;;;4972055;28;20188;-57
2021/07/22 04:51:59;;;;;;;11.17;7.33;;;16.60;99.90;;;;;;4987975;28;20188;-57
2021/07/22 04:54:24;;;;;;;9.07;7.13;;;16.60;99.90;;;;;;4975800;28;20215;-57
2021/07/22 04:56:51;;;;;;;9.20;7.37;;;16.40;99.90;;;;;;4984941;28;20568;-57
2021/07/22 04:59:16;;;;;;;7.95;7.15;;;16.60;99.90;;;;;;4981283;28;20443;-57
2021/07/22 05:01:42;;;;;;;9.87;7.73;;;16.70;99.90;;;;;;4988120;28;20287;-57
2021/07/22 05:04:08;;;;;;;8.67;7.87;;;16.80;99.90;;;;;;4968999;28;20215;-57
2021/07/22 05:06:34;;;;;;;9.53;7.70;;;16.60;99.90;;;;;;4972601;28;20684;-56
2021/07/22 05:09:01;;;;;;;9.52;7.32;;;16.90;99.90;;;;;;4972352;28;20198;-57
2021/07/22 05:11:26;;;;;;;7.88;7.18;;;16.90;99.90;;;;;;4972248;28;20206;-57
2021/07/22 05:13:52;;;;;;;9.13;8.23;;;17.20;99.90;;;;;;4971844;28;20207;-57
2021/07/22 05:16:22;;;;;;;8.30;7.50;;;16.90;99.90;;;;;;4985758;28;20545;-57
2021/07/22 05:18:50;;;;;;;10.07;9.05;;;17.10;99.90;;;;;;4971659;28;20192;-57
2021/07/22 05:21:15;;;;;;;8.85;7.95;;;17.30;99.90;;;;;;4971592;28;20219;-58
2021/07/22 05:23:41;;;;;;;7.73;6.93;;;17.40;99.90;;;;;;4973821;28;20188;-57
2021/07/22 05:26:10;;;;;;;8.30;7.40;;;17.50;99.90;;;;;;4970126;28;20214;-57
2021/07/22 05:28:37;;;;;;;7.38;6.68;;;17.40;99.90;;;;;;4976159;28;20447;-57
2021/07/22 05:31:07;;;;;;;9.90;8.27;;;17.50;99.90;;;;;;4970146;28;20660;-57
2021/07/22 05:33:33;;;;;;;10.35;7.75;;;17.70;99.90;;;;;;4968019;28;20294;-57
2021/07/22 05:36:07;;;;;;;10.32;7.68;;;17.80;99.90;;;;;;4975947;28;20180;-57
2021/07/22 05:38:36;;;;;;;9.40;8.30;;;17.90;99.90;;;;;;4972423;28;20671;-58
2021/07/22 05:41:04;;;;;;;10.60;9.13;;;18.10;99.90;;;;;;4974049;28;20210;-57
2021/07/22 05:43:30;;;;;;;9.82;8.80;;;18.20;99.90;;;;;;4970068;28;20532;-58
2021/07/22 05:45:56;;;;;;;10.60;9.50;;;18.40;99.90;;;;;;4970576;28;20196;-57
2021/07/22 05:48:22;;;;;;;16.08;9.63;;;18.50;99.90;;;;;;4971650;28;20607;-58
2021/07/22 05:50:49;;;;;;;17.63;10.13;;;18.70;99.90;;;;;;4971139;28;20207;-57
2021/07/22 05:53:18;;;;;;;14.65;10.35;;;18.90;99.90;;;;;;4968439;28;20215;-56
2021/07/22 05:55:44;;;;;;;11.00;9.57;;;19.10;99.90;;;;;;4967029;28;20187;-55
2021/07/22 05:58:10;;;;;;;13.02;9.60;;;19.30;99.90;;;;;;4970646;28;20186;-58
2021/07/22 06:00:36;;;;;;;11.75;9.50;;;19.40;99.90;;;;;;4973972;28;20245;-57
2021/07/22 06:03:05;;;;;;;11.43;10.23;;;19.50;99.90;;;;;;4969599;28;20266;-57
2021/07/22 06:05:32;;;;;;;14.05;10.25;;;19.60;99.90;;;;;;4973293;28;20184;-56
2021/07/22 06:08:00;;;;;;;15.52;10.05;;;19.60;99.90;;;;;;4970230;28;20192;-55
2021/07/22 06:10:25;;;;;;;10.77;9.38;;;19.70;99.90;;;;;;4974419;28;20207;-56
2021/07/22 06:12:51;;;;;;;10.97;9.50;;;19.80;99.90;;;;;;4973745;28;20556;-57
2021/07/22 06:15:17;;;;;;;12.35;10.98;;;19.90;99.90;;;;;;4972650;28;20203;-57
2021/07/22 06:17:43;;;;;;;10.50;9.40;;;20.00;99.90;;;;;;4971185;28;20213;-55
2021/07/22 06:20:09;;;;;;;12.13;9.77;;;20.00;99.90;;;;;;4968814;28;20203;-56
2021/07/22 06:22:35;;;;;;;12.77;10.33;;;20.10;99.90;;;;;;4971570;28;20703;-56
2021/07/22 06:25:01;;;;;;;11.93;9.88;;;20.20;99.90;;;;;;4976684;28;20442;-56
2021/07/22 06:27:27;;;;;;;12.80;9.57;;;20.30;99.90;;;;;;4963693;28;20217;-56
2021/07/22 06:29:52;;;;;;;12.30;10.77;;;20.50;99.90;;;;;;4986386;28;20215;-55
2021/07/22 06:32:18;;;;;;;11.67;10.43;;;20.70;99.80;;;;;;4965674;28;20196;-57
2021/07/22 06:34:43;;;;;;;12.20;9.73;;;20.90;99.50;;;;;;4971591;28;20205;-56
2021/07/22 06:37:09;;;;;;;11.13;9.80;;;21.10;98.90;;;;;;4966964;28;20184;-56
2021/07/22 06:39:35;;;;;;;11.00;9.90;;;21.30;98.40;;;;;;4970006;28;20200;-57
2021/07/22 06:42:02;;;;;;;11.27;8.82;;;21.30;97.20;;;;;;4968866;28;20184;-56
2021/07/22 06:44:29;;;;;;;12.35;10.65;;;21.40;96.70;;;;;;4990042;28;20195;-56
2021/07/22 06:46:55;;;;;;;11.38;9.80;;;21.50;96.80;;;;;;4971924;28;20728;-56
2021/07/22 06:49:21;;;;;;;13.10;10.60;;;21.70;96.60;;;;;;4983169;28;20270;-57
2021/07/22 06:51:51;;;;;;;11.98;10.32;;;21.80;96.70;;;;;;4968236;28;20482;-57
2021/07/22 06:54:16;;;;;;;13.53;9.97;;;22.00;96.40;;;;;;4968931;28;20266;-58
2021/07/22 06:56:42;;;;;;;12.30;9.97;;;22.50;95.50;;;;;;4969076;28;20450;-57
2021/07/22 06:59:08;;;;;;;11.10;8.93;;;23.50;93.90;;;;;;4973512;28;20189;-57
2021/07/22 07:01:33;;;;;;;11.77;10.00;;;24.50;92.40;;;;;;4976219;28;20206;-58
2021/07/22 07:03:59;;;;;;;11.03;9.17;;;25.40;90.40;;;;;;4980594;28;20687;-56
2021/07/22 07:06:24;;;;;;;11.37;9.97;;;25.40;86.90;;;;;;4974469;28;20216;-58
2021/07/22 07:08:50;;;;;;;11.67;9.80;;;25.30;86.90;;;;;;4974888;28;20225;-57
2021/07/22 07:11:15;;;;;;;13.93;9.80;;;24.70;87.80;;;;;;4975485;28;20237;-57
2021/07/22 07:13:41;;;;;;;11.90;10.20;;;24.90;88.80;;;;;;4977503;28;20209;-57
2021/07/22 07:16:07;;;;;;;11.83;10.20;;;24.90;88.50;;;;;;4991113;28;20244;-56
2021/07/22 07:18:33;;;;;;;11.17;9.10;;;25.20;87.40;;;;;;4974033;28;20206;-56
2021/07/22 07:21:06;;;;;;;11.67;9.50;;;26.00;85.60;;;;;;4977079;28;20462;-57
2021/07/22 07:23:35;;;;;;;12.97;9.80;;;27.30;81.50;;;;;;4977974;28;20501;-56
2021/07/22 07:26:01;;;;;;;10.77;9.67;;;29.00;74.50;;;;;;4975787;28;20438;-57
2021/07/22 07:28:27;;;;;;;11.80;9.30;;;30.50;69.50;;;;;;4977755;28;20440;-57
2021/07/22 07:30:53;;;;;;;11.23;10.03;;;31.00;65.00;;;;;;4974852;28;20538;-57
2021/07/22 07:33:20;;;;;;;11.17;10.13;;;31.30;62.80;;;;;;4979976;28;20457;-57
2021/07/22 07:35:46;;;;;;;12.73;10.80;;;32.30;60.60;;;;;;4974764;28;20450;-58
2021/07/22 07:38:12;;;;;;;13.17;10.73;;;33.70;56.80;;;;;;4974676;28;20442;-58
2021/07/22 07:40:38;;;;;;;11.67;10.70;;;34.00;54.90;;;;;;4976868;28;20466;-56
2021/07/22 07:43:04;;;;;;;11.60;10.00;;;33.10;54.50;;;;;;4977048;28;20446;-57
2021/07/22 07:45:31;;;;;;;10.93;9.93;;;34.00;54.00;;;;;;4979577;28;20443;-57
2021/07/22 07:47:59;;;;;;;13.53;10.70;;;35.00;52.10;;;;;;4975995;28;20568;-58
2021/07/22 07:50:25;;;;;;;12.13;10.13;;;35.80;49.90;;;;;;4975087;28;20541;-54
2021/07/22 07:52:50;;;;;;;12.17;10.30;;;36.30;48.50;;;;;;4978326;28;20575;-56
2021/07/22 07:55:16;;;;;;;9.70;8.70;;;36.30;47.60;;;;;;4973859;28;20219;-55
2021/07/22 07:57:41;;;;;;;11.13;10.17;;;36.20;47.90;;;;;;4978931;28;20763;-56
2021/07/22 08:00:08;;;;;;;17.03;10.87;;;36.10;47.50;;;;;;4977450;28;20211;-55
2021/07/22 08:02:34;;;;;;;15.30;12.90;;;36.30;47.20;;;;;;4974685;28;20894;-57
2021/07/22 08:05:01;;;;;;;11.57;10.30;;;34.90;48.10;;;;;;4980415;28;20449;-57
2021/07/22 08:07:26;;;;;;;11.87;10.77;;;34.80;49.20;;;;;;4980772;28;20187;-58
2021/07/22 08:09:53;;;;;;;11.80;10.77;;;34.50;49.50;;;;;;4978121;28;20545;-57
2021/07/22 08:12:19;;;;;;;11.80;9.83;;;34.60;49.40;;;;;;4978259;28;20450;-58
2021/07/22 08:14:45;;;;;;;12.33;11.13;;;35.60;48.20;;;;;;4971270;28;20947;-57
2021/07/22 08:17:15;;;;;;;10.97;10.07;;;35.40;47.90;;;;;;4975528;28;20445;-57
2021/07/22 08:19:41;;;;;;;10.90;9.90;;;35.40;47.40;;;;;;4973228;28;20497;-56
2021/07/22 08:22:07;;;;;;;12.00;10.13;;;34.90;47.90;;;;;;4985868;28;20487;-58
2021/07/22 08:24:33;;;;;;;9.90;9.10;;;35.80;46.70;;;;;;4972828;28;22420;-56
2021/07/22 08:26:58;;;;;;;10.03;9.23;;;36.20;45.40;;;;;;4989352;28;20452;-56
2021/07/22 08:29:24;;;;;;;10.80;9.70;;;35.90;45.30;;;;;;4990171;28;20180;-56
2021/07/22 08:31:49;;;;;;;9.50;8.60;;;34.90;47.30;;;;;;4968939;28;20226;-56
2021/07/22 08:34:17;;;;;;;9.53;8.63;;;35.80;45.50;;;;;;4974655;28;20255;-57
2021/07/22 08:36:43;;;;;;;10.80;9.00;;;36.20;44.80;;;;;;4972957;28;20199;-57
2021/07/22 08:39:09;;;;;;;8.87;8.03;;;35.80;43.90;;;;;;4991494;28;20450;-58
2021/07/22 08:41:35;;;;;;;7.93;7.30;;;36.00;43.80;;;;;;4971668;28;20473;-57
2021/07/22 08:44:05;;;;;;;8.60;7.80;;;36.60;43.20;;;;;;4980982;28;20442;-58
2021/07/22 08:46:31;;;;;;;11.00;7.60;;;37.00;42.00;;;;;;4972094;28;20237;-56
2021/07/22 08:48:57;;;;;;;9.30;8.40;;;37.40;42.00;;;;;;4986441;28;20451;-57
2021/07/22 08:51:25;;;;;;;8.83;7.93;;;37.30;41.10;;;;;;4974798;28;21010;-56
2021/07/22 08:53:52;;;;;;;8.73;8.03;;;36.90;42.20;;;;;;4989840;28;20557;-56
2021/07/22 08:56:22;;;;;;;8.90;8.10;;;37.10;42.20;;;;;;4985199;28;20860;-56
2021/07/22 08:58:49;;;;;;;8.13;7.53;;;36.40;42.30;;;;;;4971087;28;20465;-57
2021/07/22 09:01:16;;;;;;;10.57;8.13;;;36.30;43.60;;;;;;4987546;28;20473;-58
2021/07/22 09:03:41;;;;;;;9.47;8.67;;;35.50;42.50;;;;;;4974187;28;20450;-58
2021/07/22 09:06:14;;;;;;;8.00;7.20;;;36.00;43.30;;;;;;4975044;28;20454;-56
2021/07/22 09:08:41;;;;;;;9.00;7.80;;;36.30;42.80;;;;;;4971214;28;20279;-57
2021/07/22 09:11:09;;;;;;;8.70;8.00;;;36.40;42.50;;;;;;4972040;28;20461;-57
2021/07/22 09:13:35;;;;;;;8.83;8.13;;;36.50;41.90;;;;;;4983395;28;20497;-57
2021/07/22 09:16:01;;;;;;;7.93;7.33;;;36.70;42.40;;;;;;4972696;28;20861;-56
2021/07/22 09:18:31;;;;;;;8.43;6.60;;;36.10;42.00;;;;;;4974933;28;20479;-56
2021/07/22 09:20:57;;;;;;;7.30;6.60;;;36.70;41.70;;;;;;4989349;28;20242;-57
2021/07/22 09:23:27;;;;;;;8.43;7.67;;;36.70;40.70;;;;;;4976344;28;20454;-56
2021/07/22 09:25:54;;;;;;;8.07;7.23;;;37.10;41.10;;;;;;4978743;28;20534;-55
2021/07/22 09:28:25;;;;;;;8.73;8.03;;;37.20;41.10;;;;;;4969455;28;20435;-56
2021/07/22 09:30:54;;;;;;;9.17;8.47;;;37.40;39.70;;;;;;4970607;28;20825;-56
2021/07/22 09:33:34;;;;;;;7.20;6.60;;;37.60;39.60;;;;;;4975948;28;20451;-56
2021/07/22 09:36:00;;;;;;;10.47;7.67;;;37.80;38.10;;;;;;4987320;28;20435;-56
2021/07/22 09:38:28;;;;;;;8.10;7.40;;;37.30;38.00;;;;;;4984915;28;20441;-57
2021/07/22 09:40:54;;;;;;;8.07;7.40;;;37.70;39.10;;;;;;4973737;28;20949;-55
2021/07/22 09:43:39;;;;;;;7.40;6.90;;;37.90;38.30;;;;;;4972223;28;20497;-55
2021/07/22 09:46:06;;;;;;;8.37;7.57;;;38.10;38.00;;;;;;4984030;28;20444;-55
2021/07/22 09:48:32;;;;;;;7.07;6.37;;;38.20;37.30;;;;;;4972903;28;21066;-55
2021/07/22 09:50:58;;;;;;;8.17;7.33;;;37.70;36.60;;;;;;4969481;28;20557;-56
2021/07/22 09:53:25;;;;;;;8.10;7.30;;;38.00;37.30;;;;;;4970989;28;20196;-57
2021/07/22 09:55:55;;;;;;;7.30;6.70;;;38.00;37.10;;;;;;4970482;28;20939;-56
2021/07/22 09:58:21;;;;;;;7.53;6.83;;;38.30;37.00;;;;;;4969009;28;20430;-56
2021/07/22 10:00:50;;;;;;;7.50;6.90;;;37.80;37.00;;;;;;4969540;28;20716;-56
2021/07/22 10:03:23;;;;;;;9.27;6.80;;;37.90;36.40;;;;;;4969987;28;20449;-57
2021/07/22 10:06:05;;;;;;;8.20;7.50;;;37.00;36.40;;;;;;4969170;28;20450;-57
2021/07/22 10:08:33;;;;;;;7.70;7.03;;;36.60;38.80;;;;;;4983977;28;20458;-56
2021/07/22 10:10:59;;;;;;;6.77;6.17;;;37.40;36.80;;;;;;4971622;28;20467;-56
2021/07/22 10:13:36;;;;;;;6.77;6.17;;;37.20;36.30;;;;;;4988094;28;20446;-56
2021/07/22 10:16:07;;;;;;;7.70;6.70;;;37.80;36.50;;;;;;4969703;28;20446;-56
2021/07/22 10:18:36;;;;;;;7.77;7.00;;;38.20;36.10;;;;;;4981132;28;20530;-56
2021/07/22 10:21:02;;;;;;;8.90;8.10;;;37.60;36.90;;;;;;4981713;28;20598;-56
2021/07/22 10:23:29;;;;;;;8.10;7.50;;;38.30;36.10;;;;;;4969351;28;20435;-56
2021/07/22 10:25:56;;;;;;;7.40;6.70;;;37.80;35.80;;;;;;4975161;28;20453;-56
2021/07/22 10:28:23;;;;;;;8.40;7.60;;;37.50;37.80;;;;;;4970404;28;20438;-56
2021/07/22 10:30:48;;;;;;;8.13;7.43;;;36.10;39.00;;;;;;4970825;28;20824;-57
2021/07/22 10:33:19;;;;;;;8.40;7.60;;;34.40;41.30;;;;;;4973208;28;20426;-57
2021/07/22 10:35:46;;;;;;;7.90;7.20;;;33.70;42.20;;;;;;4986202;28;20278;-57
2021/07/22 10:38:23;;;;;;;8.90;8.00;;;33.10;45.10;;;;;;4973644;28;20517;-57
2021/07/22 10:40:52;;;;;;;8.77;7.97;;;32.80;45.60;;;;;;4976733;28;20478;-57
2021/07/22 10:43:42;;;;;;;8.23;7.50;;;31.80;47.40;;;;;;4967824;28;20496;-58
2021/07/22 10:46:20;;;;;;;9.17;8.37;;;31.20;48.90;;;;;;4981800;28;20479;-57
2021/07/22 10:48:46;;;;;;;8.70;7.80;;;31.10;49.10;;;;;;4980167;28;20446;-57
2021/07/22 10:51:13;;;;;;;8.40;7.63;;;30.80;49.70;;;;;;4972820;28;20533;-55
2021/07/22 10:53:47;;;;;;;7.73;7.13;;;30.80;50.40;;;;;;4972572;28;20918;-57
2021/07/22 10:56:17;;;;;;;9.43;8.50;;;30.20;50.60;;;;;;4965523;28;20450;-56
2021/07/22 10:58:43;;;;;;;8.50;7.60;;;30.30;51.00;;;;;;4969544;28;20442;-58
2021/07/22 11:01:08;;;;;;;8.63;7.77;;;30.30;51.00;;;;;;4986453;28;20796;-57
2021/07/22 11:03:34;;;;;;;8.43;7.63;;;30.90;49.10;;;;;;4988784;28;20196;-57
2021/07/22 11:06:02;;;;;;;8.60;7.70;;;31.50;48.90;;;;;;4984135;28;20666;-57
2021/07/22 11:08:31;;;;;;;8.40;7.73;;;32.20;48.00;;;;;;4969969;28;20481;-56
2021/07/22 11:10:59;;;;;;;8.17;7.53;;;33.00;46.80;;;;;;4972843;28;20486;-57
2021/07/22 11:13:36;;;;;;;7.90;7.20;;;33.40;46.40;;;;;;4968699;28;21745;-56
2021/07/22 11:16:06;;;;;;;9.73;8.73;;;32.50;47.10;;;;;;4968385;28;20450;-57
2021/07/22 11:21:07;;;;;;;9.33;8.53;;;34.30;44.30;;;;;;4982216;28;20560;-56
2021/07/22 11:23:33;;;;;;;10.43;9.43;;;34.40;43.80;;;;;;4973799;28;20573;-58
2021/07/22 11:25:59;;;;;;;9.17;8.47;;;33.90;44.70;;;;;;4970403;28;20450;-57
2021/07/22 11:28:26;;;;;;;8.37;7.67;;;35.00;43.80;;;;;;4974148;28;20450;-56
2021/07/22 11:31:08;;;;;;;8.93;8.23;;;34.90;43.20;;;;;;4971018;28;20266;-56
2021/07/22 11:33:36;;;;;;;8.27;7.47;;;35.30;42.80;;;;;;4985260;28;20574;-56
2021/07/22 11:36:07;;;;;;;8.20;7.40;;;35.30;43.20;;;;;;4972126;28;20453;-56
2021/07/22 11:38:35;;;;;;;9.23;8.30;;;35.80;43.10;;;;;;4987940;28;21002;-56
2021/07/22 11:41:09;;;;;;;9.10;8.20;;;35.10;42.10;;;;;;4969294;28;20465;-56
2021/07/22 11:43:36;;;;;;;8.83;8.03;;;35.10;42.30;;;;;;4961187;28;20478;-56
2021/07/22 11:46:02;;;;;;;9.33;8.53;;;35.20;42.50;;;;;;4973002;28;20529;-56
2021/07/22 11:48:28;;;;;;;10.60;8.83;;;34.70;42.80;;;;;;4981022;28;20772;-56
2021/07/22 11:51:11;;;;;;;10.37;9.57;;;34.30;43.10;;;;;;4977962;28;20539;-57
2021/07/22 11:53:37;;;;;;;8.57;7.67;;;34.00;43.60;;;;;;4974923;28;20195;-57
2021/07/22 11:56:16;;;;;;;9.70;8.80;;;33.60;45.30;;;;;;4976411;28;20936;-56
2021/07/22 11:58:50;;;;;;;9.37;8.57;;;32.50;46.20;;;;;;4972134;28;20446;-55
2021/07/22 12:01:17;;;;;;;9.40;8.60;;;32.30;47.60;;;;;;4977190;28;20462;-56
2021/07/22 12:03:47;;;;;;;9.13;8.33;;;32.40;47.50;;;;;;4973150;28;20941;-56
2021/07/22 12:06:33;;;;;;;9.30;8.50;;;32.00;47.70;;;;;;4979493;28;20442;-57
2021/07/22 12:09:02;;;;;;;8.70;7.90;;;31.40;48.50;;;;;;4974510;28;20557;-57
2021/07/22 12:11:28;;;;;;;9.40;8.60;;;31.10;49.60;;;;;;4969973;28;20454;-57
2021/07/22 12:13:54;;;;;;;9.80;9.00;;;30.90;50.20;;;;;;4973648;28;20524;-56
2021/07/22 12:16:21;;;;;;;8.43;7.73;;;30.60;50.20;;;;;;4977964;28;20912;-55
2021/07/22 12:18:49;;;;;;;9.13;8.37;;;30.20;50.80;;;;;;4974472;28;20717;-55
2021/07/22 12:21:19;;;;;;;9.03;8.13;;;30.00;52.50;;;;;;4976840;28;20466;-56
2021/07/22 12:23:45;;;;;;;8.50;7.80;;;29.90;52.20;;;;;;4976560;28;20450;-56
2021/07/22 12:26:11;;;;;;;11.30;8.40;;;29.80;51.80;;;;;;4977244;28;20440;-56
2021/07/22 12:28:36;;;;;;;9.80;8.60;;;29.70;52.00;;;;;;4972963;28;20195;-55
2021/07/22 12:31:18;;;;;;;9.77;8.80;;;29.50;52.70;;;;;;4978141;28;20300;-56
2021/07/22 12:33:58;;;;;;;9.37;8.43;;;29.50;52.70;;;;;;4987871;28;20269;-56
2021/07/22 12:36:24;;;;;;;11.30;9.00;;;29.50;53.10;;;;;;4987941;28;20445;-56
2021/07/22 12:39:14;;;;;;;9.77;8.97;;;29.40;52.90;;;;;;4972974;28;20438;-57
2021/07/22 12:41:41;;;;;;;10.23;8.47;;;29.30;53.50;;;;;;4971642;28;20646;-57
2021/07/22 12:44:07;;;;;;;10.50;9.40;;;29.20;53.30;;;;;;4970081;28;20533;-56
2021/07/22 12:46:33;;;;;;;9.60;8.70;;;29.10;53.70;;;;;;4975583;28;21001;-57